sensor_id;sensor_type;location;lat;lon;timestamp;pressure;altitude;pressure_sealevel;temperature;humidity
25722;BME280;13578;53.450;15.496;2023-05-13T00:00:43;100443.94;;;11.74;71.36
25722;BME280;13578;53.450;15.496;2023-05-13T00:03:43;100435.53;;;11.75;71.42
25722;BME280;13578;53.450;15.496;2023-05-13T00:06:44;100443.34;;;11.59;72.33
25722;BME280;13578;53.450;15.496;2023-05-13T00:09:45;100439.59;;;11.60;72.29
25722;BME280;13578;53.450;15.496;2023-05-13T00:12:45;100446.75;;;11.51;72.17
25722;BME280;13578;53.450;15.496;2023-05-13T00:15:46;100433.63;;;11.55;71.95
25722;BME280;13578;53.450;15.496;2023-05-13T00:18:47;100445.00;;;11.50;72.49
25722;BME280;13578;53.450;15.496;2023-05-13T00:21:48;100440.63;;;11.48;73.08
25722;BME280;13578;53.450;15.496;2023-05-13T00:24:48;100444.66;;;11.32;73.16
25722;BME280;13578;53.450;15.496;2023-05-13T00:27:49;100440.63;;;11.36;72.94
25722;BME280;13578;53.450;15.496;2023-05-13T00:30:50;100443.38;;;11.36;73.27
25722;BME280;13578;53.450;15.496;2023-05-13T00:33:51;100444.91;;;11.29;73.86
25722;BME280;13578;53.450;15.496;2023-05-13T00:36:51;100452.28;;;11.28;73.92
25722;BME280;13578;53.450;15.496;2023-05-13T00:39:52;100453.53;;;11.13;75.33
25722;BME280;13578;53.450;15.496;2023-05-13T00:42:53;100460.28;;;11.09;75.41
25722;BME280;13578;53.450;15.496;2023-05-13T00:45:54;100464.66;;;11.11;75.62
25722;BME280;13578;53.450;15.496;2023-05-13T00:48:55;100469.53;;;11.08;76.54
25722;BME280;13578;53.450;15.496;2023-05-13T00:51:55;100460.03;;;11.12;76.28
25722;BME280;13578;53.450;15.496;2023-05-13T00:54:57;100457.03;;;11.04;76.17
25722;BME280;13578;53.450;15.496;2023-05-13T00:57:57;100457.16;;;11.02;76.67
25722;BME280;13578;53.450;15.496;2023-05-13T01:01:12;100461.16;;;10.87;77.46
25722;BME280;13578;53.450;15.496;2023-05-13T01:04:33;100466.53;;;10.88;78.13
25722;BME280;13578;53.450;15.496;2023-05-13T01:11:23;100467.78;;;10.84;78.50
25722;BME280;13578;53.450;15.496;2023-05-13T01:14:32;100474.63;;;10.78;79.60
25722;BME280;13578;53.450;15.496;2023-05-13T01:17:41;100475.38;;;10.80;79.59
25722;BME280;13578;53.450;15.496;2023-05-13T01:20:44;100477.78;;;10.85;78.72
25722;BME280;13578;53.450;15.496;2023-05-13T01:23:45;100478.88;;;10.71;79.67
25722;BME280;13578;53.450;15.496;2023-05-13T01:26:46;100481.75;;;10.70;80.17
25722;BME280;13578;53.450;15.496;2023-05-13T01:29:48;100484.50;;;10.70;79.67
25722;BME280;13578;53.450;15.496;2023-05-13T01:32:49;100474.63;;;10.67;80.34
25722;BME280;13578;53.450;15.496;2023-05-13T01:35:51;100483.09;;;10.53;81.21
25722;BME280;13578;53.450;15.496;2023-05-13T01:38:53;100483.84;;;10.66;80.85
25722;BME280;13578;53.450;15.496;2023-05-13T01:41:55;100485.34;;;10.59;81.27
25722;BME280;13578;53.450;15.496;2023-05-13T01:44:56;100496.69;;;10.54;81.55
25722;BME280;13578;53.450;15.496;2023-05-13T01:47:57;100505.41;;;10.48;82.92
25722;BME280;13578;53.450;15.496;2023-05-13T01:50:57;100504.88;;;10.43;82.71
25722;BME280;13578;53.450;15.496;2023-05-13T01:53:58;100489.28;;;10.43;83.16
25722;BME280;13578;53.450;15.496;2023-05-13T01:56:59;100507.09;;;10.38;83.89
25722;BME280;13578;53.450;15.496;2023-05-13T02:00:00;100501.44;;;10.28;85.10
25722;BME280;13578;53.450;15.496;2023-05-13T02:03:00;100506.00;;;10.16;86.09
25722;BME280;13578;53.450;15.496;2023-05-13T02:06:01;100514.00;;;10.19;85.91
25722;BME280;13578;53.450;15.496;2023-05-13T02:09:02;100503.75;;;10.21;86.10
25722;BME280;13578;53.450;15.496;2023-05-13T02:12:03;100512.53;;;10.26;85.98
25722;BME280;13578;53.450;15.496;2023-05-13T02:15:04;100513.03;;;10.20;86.75
25722;BME280;13578;53.450;15.496;2023-05-13T02:18:04;100515.56;;;10.10;87.67
25722;BME280;13578;53.450;15.496;2023-05-13T02:21:05;100516.47;;;10.11;87.31
25722;BME280;13578;53.450;15.496;2023-05-13T02:24:06;100519.97;;;10.13;87.67
25722;BME280;13578;53.450;15.496;2023-05-13T02:27:07;100523.53;;;10.02;88.24
25722;BME280;13578;53.450;15.496;2023-05-13T02:30:11;100522.91;;;9.98;88.89
25722;BME280;13578;53.450;15.496;2023-05-13T02:33:12;100516.66;;;9.96;89.67
25722;BME280;13578;53.450;15.496;2023-05-13T02:36:12;100518.16;;;10.00;89.77
25722;BME280;13578;53.450;15.496;2023-05-13T02:39:13;100527.88;;;9.80;90.78
25722;BME280;13578;53.450;15.496;2023-05-13T02:42:13;100531.09;;;9.74;92.01
25722;BME280;13578;53.450;15.496;2023-05-13T02:45:14;100527.97;;;9.92;91.61
25722;BME280;13578;53.450;15.496;2023-05-13T02:48:15;100529.63;;;9.81;92.02
25722;BME280;13578;53.450;15.496;2023-05-13T02:51:16;100530.75;;;9.79;92.34
25722;BME280;13578;53.450;15.496;2023-05-13T02:54:17;100538.81;;;9.56;94.72
25722;BME280;13578;53.450;15.496;2023-05-13T02:57:17;100534.53;;;9.65;94.19
25722;BME280;13578;53.450;15.496;2023-05-13T03:00:18;100542.06;;;9.74;93.75
25722;BME280;13578;53.450;15.496;2023-05-13T03:03:19;100540.09;;;9.76;94.30
25722;BME280;13578;53.450;15.496;2023-05-13T03:06:19;100544.16;;;9.70;94.87
25722;BME280;13578;53.450;15.496;2023-05-13T03:09:20;100545.69;;;9.75;94.62
25722;BME280;13578;53.450;15.496;2023-05-13T03:12:20;100539.22;;;9.76;94.52
25722;BME280;13578;53.450;15.496;2023-05-13T03:15:21;100545.09;;;9.82;94.74
25722;BME280;13578;53.450;15.496;2023-05-13T03:18:22;100540.53;;;9.70;95.76
25722;BME280;13578;53.450;15.496;2023-05-13T03:21:22;100544.44;;;9.79;95.24
25722;BME280;13578;53.450;15.496;2023-05-13T03:24:23;100546.72;;;9.85;95.35
25722;BME280;13578;53.450;15.496;2023-05-13T03:27:24;100542.00;;;10.11;94.08
25722;BME280;13578;53.450;15.496;2023-05-13T03:30:24;100526.25;;;10.62;90.12
25722;BME280;13578;53.450;15.496;2023-05-13T03:33:25;100522.47;;;11.10;87.22
25722;BME280;13578;53.450;15.496;2023-05-13T03:36:28;100517.47;;;11.38;84.84
25722;BME280;13578;53.450;15.496;2023-05-13T03:39:28;100514.41;;;11.75;83.00
25722;BME280;13578;53.450;15.496;2023-05-13T03:42:29;100513.00;;;11.81;81.72
25722;BME280;13578;53.450;15.496;2023-05-13T03:45:30;100512.53;;;12.19;79.67
25722;BME280;13578;53.450;15.496;2023-05-13T03:48:30;100510.97;;;12.38;78.58
25722;BME280;13578;53.450;15.496;2023-05-13T03:51:31;100505.59;;;12.58;77.25
25722;BME280;13578;53.450;15.496;2023-05-13T03:54:34;100498.00;;;12.71;75.49
25722;BME280;13578;53.450;15.496;2023-05-13T03:57:34;100505.09;;;12.95;74.19
25722;BME280;13578;53.450;15.496;2023-05-13T04:00:35;100504.69;;;12.99;73.91
25722;BME280;13578;53.450;15.496;2023-05-13T04:03:35;100507.28;;;13.01;73.88
25722;BME280;13578;53.450;15.496;2023-05-13T04:06:36;100513.00;;;13.09;73.86
25722;BME280;13578;53.450;15.496;2023-05-13T04:09:37;100514.94;;;13.18;73.95
25722;BME280;13578;53.450;15.496;2023-05-13T04:12:38;100507.69;;;13.48;72.20
25722;BME280;13578;53.450;15.496;2023-05-13T04:15:39;100505.38;;;13.23;71.00
25722;BME280;13578;53.450;15.496;2023-05-13T04:18:40;100521.38;;;12.98;73.38
25722;BME280;13578;53.450;15.496;2023-05-13T04:21:40;100516.59;;;12.79;74.23
25722;BME280;13578;53.450;15.496;2023-05-13T04:24:41;100539.34;;;12.38;76.96
25722;BME280;13578;53.450;15.496;2023-05-13T04:27:42;100544.44;;;12.22;80.00
25722;BME280;13578;53.450;15.496;2023-05-13T04:30:43;100543.78;;;12.30;80.24
25722;BME280;13578;53.450;15.496;2023-05-13T04:33:43;100537.13;;;12.32;78.67
25722;BME280;13578;53.450;15.496;2023-05-13T04:36:44;100539.28;;;12.29;80.15
25722;BME280;13578;53.450;15.496;2023-05-13T04:39:46;100544.25;;;12.35;79.14
25722;BME280;13578;53.450;15.496;2023-05-13T04:42:46;100548.28;;;12.31;79.40
25722;BME280;13578;53.450;15.496;2023-05-13T04:45:53;100562.41;;;12.59;79.64
25722;BME280;13578;53.450;15.496;2023-05-13T04:48:54;100550.41;;;12.81;77.99
25722;BME280;13578;53.450;15.496;2023-05-13T04:51:55;100556.03;;;12.79;77.57
25722;BME280;13578;53.450;15.496;2023-05-13T04:54:56;100554.28;;;12.78;77.82
25722;BME280;13578;53.450;15.496;2023-05-13T04:57:57;100560.53;;;13.01;78.11
25722;BME280;13578;53.450;15.496;2023-05-13T05:00:57;100556.63;;;12.83;77.37
25722;BME280;13578;53.450;15.496;2023-05-13T05:03:58;100571.38;;;12.93;78.26
25722;BME280;13578;53.450;15.496;2023-05-13T05:06:59;100566.16;;;13.21;78.41
25722;BME280;13578;53.450;15.496;2023-05-13T05:09:59;100565.81;;;13.14;78.01
25722;BME280;13578;53.450;15.496;2023-05-13T05:13:00;100561.53;;;13.22;78.60
25722;BME280;13578;53.450;15.496;2023-05-13T05:16:00;100559.16;;;13.38;76.06
25722;BME280;13578;53.450;15.496;2023-05-13T05:19:01;100570.94;;;13.40;77.73
25722;BME280;13578;53.450;15.496;2023-05-13T05:22:02;100572.25;;;13.46;76.84
25722;BME280;13578;53.450;15.496;2023-05-13T05:25:03;100578.69;;;13.56;77.75
25722;BME280;13578;53.450;15.496;2023-05-13T05:28:03;100572.78;;;13.71;76.69
25722;BME280;13578;53.450;15.496;2023-05-13T05:31:05;100569.78;;;13.84;75.33
25722;BME280;13578;53.450;15.496;2023-05-13T05:34:06;100560.81;;;13.91;73.99
25722;BME280;13578;53.450;15.496;2023-05-13T05:37:06;100560.06;;;13.79;74.41
25722;BME280;13578;53.450;15.496;2023-05-13T05:40:07;100569.53;;;13.96;75.09
25722;BME280;13578;53.450;15.496;2023-05-13T05:43:08;100574.91;;;13.98;75.01
25722;BME280;13578;53.450;15.496;2023-05-13T05:46:13;100585.84;;;14.09;76.62
25722;BME280;13578;53.450;15.496;2023-05-13T05:49:13;100584.97;;;14.28;74.92
25722;BME280;13578;53.450;15.496;2023-05-13T05:52:14;100575.38;;;14.23;73.83
25722;BME280;13578;53.450;15.496;2023-05-13T05:55:14;100572.19;;;14.37;73.11
25722;BME280;13578;53.450;15.496;2023-05-13T05:58:15;100573.78;;;14.50;72.77
25722;BME280;13578;53.450;15.496;2023-05-13T06:01:16;100573.09;;;14.77;73.32
25722;BME280;13578;53.450;15.496;2023-05-13T06:04:17;100562.16;;;14.95;70.66
25722;BME280;13578;53.450;15.496;2023-05-13T06:07:17;100558.06;;;14.99;69.97
25722;BME280;13578;53.450;15.496;2023-05-13T06:10:18;100551.94;;;15.15;68.97
25722;BME280;13578;53.450;15.496;2023-05-13T06:13:18;100545.97;;;15.20;66.73
25722;BME280;13578;53.450;15.496;2023-05-13T06:16:19;100562.75;;;15.36;68.72
25722;BME280;13578;53.450;15.496;2023-05-13T06:19:20;100547.47;;;15.42;67.40
25722;BME280;13578;53.450;15.496;2023-05-13T06:22:20;100558.94;;;15.75;68.33
25722;BME280;13578;53.450;15.496;2023-05-13T06:25:21;100539.59;;;15.85;65.94
25722;BME280;13578;53.450;15.496;2023-05-13T06:28:21;100536.75;;;15.95;64.58
25722;BME280;13578;53.450;15.496;2023-05-13T06:31:22;100547.28;;;16.09;65.92
25722;BME280;13578;53.450;15.496;2023-05-13T06:34:22;100554.97;;;16.33;66.37
25722;BME280;13578;53.450;15.496;2023-05-13T06:37:23;100545.16;;;16.57;65.16
25722;BME280;13578;53.450;15.496;2023-05-13T06:40:24;100524.16;;;16.73;61.79
25722;BME280;13578;53.450;15.496;2023-05-13T06:43:24;100521.34;;;17.09;60.61
25722;BME280;13578;53.450;15.496;2023-05-13T06:46:25;100536.75;;;17.38;61.49
25722;BME280;13578;53.450;15.496;2023-05-13T06:49:25;100521.94;;;17.63;59.40
25722;BME280;13578;53.450;15.496;2023-05-13T06:52:26;100498.09;;;17.87;56.82
25722;BME280;13578;53.450;15.496;2023-05-13T06:55:27;100513.81;;;18.05;57.04
25722;BME280;13578;53.450;15.496;2023-05-13T06:58:27;100484.47;;;18.19;53.96
25722;BME280;13578;53.450;15.496;2023-05-13T07:01:28;100499.28;;;18.28;55.53
25722;BME280;13578;53.450;15.496;2023-05-13T07:04:28;100499.78;;;18.48;56.61
25722;BME280;13578;53.450;15.496;2023-05-13T07:07:29;100504.81;;;18.61;54.96
25722;BME280;13578;53.450;15.496;2023-05-13T07:10:30;100472.84;;;18.81;52.70
25722;BME280;13578;53.450;15.496;2023-05-13T07:13:30;100456.34;;;18.71;50.46
25722;BME280;13578;53.450;15.496;2023-05-13T07:16:33;100471.09;;;18.80;50.92
25722;BME280;13578;53.450;15.496;2023-05-13T07:19:34;100474.03;;;19.12;51.74
25722;BME280;13578;53.450;15.496;2023-05-13T07:22:35;100459.97;;;18.97;49.91
25722;BME280;13578;53.450;15.496;2023-05-13T07:25:35;100460.34;;;18.85;49.38
25722;BME280;13578;53.450;15.496;2023-05-13T07:28:36;100456.13;;;19.14;49.68
25722;BME280;13578;53.450;15.496;2023-05-13T07:31:37;100444.84;;;19.47;47.58
25722;BME280;13578;53.450;15.496;2023-05-13T07:34:38;100439.81;;;19.43;47.56
25722;BME280;13578;53.450;15.496;2023-05-13T07:37:38;100446.13;;;19.68;47.92
25722;BME280;13578;53.450;15.496;2023-05-13T07:40:39;100439.13;;;19.80;46.37
25722;BME280;13578;53.450;15.496;2023-05-13T07:43:40;100451.00;;;20.06;48.39
25722;BME280;13578;53.450;15.496;2023-05-13T07:46:40;100429.38;;;19.76;45.49
25722;BME280;13578;53.450;15.496;2023-05-13T07:49:41;100430.41;;;19.75;45.65
25722;BME280;13578;53.450;15.496;2023-05-13T07:52:42;100411.06;;;19.90;44.21
25722;BME280;13578;53.450;15.496;2023-05-13T07:55:42;100385.88;;;19.75;42.95
25722;BME280;13578;53.450;15.496;2023-05-13T07:58:43;100411.03;;;20.13;43.93
25722;BME280;13578;53.450;15.496;2023-05-13T08:01:45;100409.19;;;20.29;42.98
25722;BME280;13578;53.450;15.496;2023-05-13T08:04:45;100390.88;;;20.11;42.13
25722;BME280;13578;53.450;15.496;2023-05-13T08:07:46;100407.91;;;20.55;43.59
25722;BME280;13578;53.450;15.496;2023-05-13T08:10:47;100388.31;;;20.63;41.24
25722;BME280;13578;53.450;15.496;2023-05-13T08:13:47;100378.66;;;20.74;40.03
25722;BME280;13578;53.450;15.496;2023-05-13T08:16:48;100398.34;;;20.72;41.58
25722;BME280;13578;53.450;15.496;2023-05-13T08:19:49;100396.84;;;20.61;41.90
25722;BME280;13578;53.450;15.496;2023-05-13T08:22:50;100408.97;;;20.69;42.65
25722;BME280;13578;53.450;15.496;2023-05-13T08:25:50;100391.75;;;20.88;41.12
25722;BME280;13578;53.450;15.496;2023-05-13T08:28:51;100371.03;;;20.98;39.99
25722;BME280;13578;53.450;15.496;2023-05-13T08:31:52;100392.13;;;20.85;41.03
25722;BME280;13578;53.450;15.496;2023-05-13T08:34:53;100366.03;;;20.93;39.19
25722;BME280;13578;53.450;15.496;2023-05-13T08:37:53;100393.84;;;21.16;40.86
25722;BME280;13578;53.450;15.496;2023-05-13T08:40:54;100369.97;;;21.29;39.50
25722;BME280;13578;53.450;15.496;2023-05-13T08:43:56;100394.97;;;21.37;41.78
25722;BME280;13578;53.450;15.496;2023-05-13T08:50:21;100381.44;;;21.19;39.38
25722;BME280;13578;53.450;15.496;2023-05-13T08:53:24;100389.28;;;21.30;40.27
25722;BME280;13578;53.450;15.496;2023-05-13T08:56:25;100395.41;;;21.70;40.38
25722;BME280;13578;53.450;15.496;2023-05-13T08:59:28;100388.91;;;21.85;39.73
25722;BME280;13578;53.450;15.496;2023-05-13T09:02:29;100392.03;;;21.75;40.53
25722;BME280;13578;53.450;15.496;2023-05-13T09:05:29;100355.00;;;21.88;38.05
25722;BME280;13578;53.450;15.496;2023-05-13T09:08:31;100361.81;;;21.85;38.93
25722;BME280;13578;53.450;15.496;2023-05-13T09:11:32;100353.31;;;21.94;38.59
25722;BME280;13578;53.450;15.496;2023-05-13T09:14:33;100403.22;;;22.40;41.28
25722;BME280;13578;53.450;15.496;2023-05-13T09:20:38;100350.75;;;22.71;38.34
25722;BME280;13578;53.450;15.496;2023-05-13T09:23:38;100348.31;;;22.61;37.42
25722;BME280;13578;53.450;15.496;2023-05-13T09:26:40;100360.47;;;22.75;37.85
25722;BME280;13578;53.450;15.496;2023-05-13T09:29:41;100354.94;;;22.53;37.43
25722;BME280;13578;53.450;15.496;2023-05-13T09:32:42;100377.41;;;22.66;39.30
25722;BME280;13578;53.450;15.496;2023-05-13T09:35:47;100357.53;;;22.83;37.61
25722;BME280;13578;53.450;15.496;2023-05-13T09:38:51;100372.03;;;23.00;38.43
25722;BME280;13578;53.450;15.496;2023-05-13T09:41:54;100333.63;;;23.22;35.67
25722;BME280;13578;53.450;15.496;2023-05-13T09:44:54;100337.94;;;23.25;36.64
25722;BME280;13578;53.450;15.496;2023-05-13T09:47:55;100332.16;;;23.33;35.71
25722;BME280;13578;53.450;15.496;2023-05-13T09:50:56;100350.19;;;23.17;36.39
25722;BME280;13578;53.450;15.496;2023-05-13T09:54:04;100313.53;;;22.13;36.04
25722;BME280;13578;53.450;15.496;2023-05-13T09:57:05;100320.84;;;21.93;36.59
25722;BME280;13578;53.450;15.496;2023-05-13T10:00:06;100312.41;;;22.08;36.89
25722;BME280;13578;53.450;15.496;2023-05-13T10:03:08;100333.91;;;22.35;37.58
25722;BME280;13578;53.450;15.496;2023-05-13T10:06:09;100317.19;;;22.14;36.88
25722;BME280;13578;53.450;15.496;2023-05-13T10:09:10;100331.59;;;22.39;37.68
25722;BME280;13578;53.450;15.496;2023-05-13T10:12:13;100340.75;;;22.55;37.38
25722;BME280;13578;53.450;15.496;2023-05-13T10:15:14;100304.63;;;22.03;35.94
25722;BME280;13578;53.450;15.496;2023-05-13T10:18:16;100329.00;;;22.37;37.21
25722;BME280;13578;53.450;15.496;2023-05-13T10:21:20;100335.09;;;22.48;37.60
25722;BME280;13578;53.450;15.496;2023-05-13T10:24:22;100308.16;;;22.68;37.68
25722;BME280;13578;53.450;15.496;2023-05-13T10:27:28;100306.00;;;22.71;35.71
25722;BME280;13578;53.450;15.496;2023-05-13T10:30:29;100306.81;;;22.64;36.42
25722;BME280;13578;53.450;15.496;2023-05-13T10:33:31;100324.59;;;22.85;36.67
25722;BME280;13578;53.450;15.496;2023-05-13T10:37:02;100311.91;;;22.89;35.94
25722;BME280;13578;53.450;15.496;2023-05-13T10:40:21;100331.97;;;22.99;36.89
25722;BME280;13578;53.450;15.496;2023-05-13T10:43:28;100308.75;;;23.06;35.75
25722;BME280;13578;53.450;15.496;2023-05-13T10:46:30;100296.88;;;22.97;34.98
25722;BME280;13578;53.450;15.496;2023-05-13T10:49:33;100307.78;;;22.85;36.01
25722;BME280;13578;53.450;15.496;2023-05-13T10:52:53;100287.72;;;22.40;34.94
25722;BME280;13578;53.450;15.496;2023-05-13T10:55:56;100317.06;;;22.00;36.74
25722;BME280;13578;53.450;15.496;2023-05-13T11:02:00;100281.25;;;21.46;35.72
25722;BME280;13578;53.450;15.496;2023-05-13T11:05:04;100298.50;;;21.13;37.01
25722;BME280;13578;53.450;15.496;2023-05-13T11:08:04;100322.25;;;21.08;38.32
25722;BME280;13578;53.450;15.496;2023-05-13T11:14:29;100323.88;;;20.58;38.99
25722;BME280;13578;53.450;15.496;2023-05-13T11:17:30;100326.56;;;21.26;39.22
25722;BME280;13578;53.450;15.496;2023-05-13T11:20:31;100311.81;;;21.91;37.93
25722;BME280;13578;53.450;15.496;2023-05-13T11:23:33;100320.59;;;22.37;38.38
25722;BME280;13578;53.450;15.496;2023-05-13T11:29:48;100293.91;;;22.63;36.59
25722;BME280;13578;53.450;15.496;2023-05-13T11:35:55;100288.06;;;22.30;36.00
25722;BME280;13578;53.450;15.496;2023-05-13T11:39:07;100252.47;;;22.39;34.99
25722;BME280;13578;53.450;15.496;2023-05-13T11:42:10;100265.75;;;22.72;34.97
25722;BME280;13578;53.450;15.496;2023-05-13T11:45:11;100271.69;;;22.90;35.63
25722;BME280;13578;53.450;15.496;2023-05-13T11:48:22;100260.28;;;22.98;34.54
25722;BME280;13578;53.450;15.496;2023-05-13T11:51:23;100288.94;;;23.00;36.15
25722;BME280;13578;53.450;15.496;2023-05-13T11:54:28;100291.16;;;23.12;36.57
25722;BME280;13578;53.450;15.496;2023-05-13T11:57:29;100276.78;;;23.28;35.25
25722;BME280;13578;53.450;15.496;2023-05-13T12:00:33;100254.63;;;23.40;33.49
25722;BME280;13578;53.450;15.496;2023-05-13T12:03:34;100249.31;;;22.90;33.70
25722;BME280;13578;53.450;15.496;2023-05-13T12:06:45;100249.16;;;23.12;34.57
25722;BME280;13578;53.450;15.496;2023-05-13T12:09:47;100271.69;;;22.97;35.55
25722;BME280;13578;53.450;15.496;2023-05-13T12:12:47;100265.59;;;23.22;34.25
25722;BME280;13578;53.450;15.496;2023-05-13T12:15:48;100241.22;;;23.15;33.55
25722;BME280;13578;53.450;15.496;2023-05-13T12:18:59;100247.44;;;23.11;34.36
25722;BME280;13578;53.450;15.496;2023-05-13T12:22:01;100275.28;;;23.19;34.70
25722;BME280;13578;53.450;15.496;2023-05-13T12:28:40;100245.28;;;22.64;34.01
25722;BME280;13578;53.450;15.496;2023-05-13T12:31:42;100281.56;;;22.86;35.90
25722;BME280;13578;53.450;15.496;2023-05-13T12:34:47;100244.97;;;22.88;33.80
25722;BME280;13578;53.450;15.496;2023-05-13T12:38:03;100236.97;;;23.26;33.29
25722;BME280;13578;53.450;15.496;2023-05-13T12:41:11;100263.06;;;23.54;34.14
25722;BME280;13578;53.450;15.496;2023-05-13T12:44:15;100245.19;;;23.48;33.03
25722;BME280;13578;53.450;15.496;2023-05-13T12:47:15;100274.94;;;23.62;34.40
25722;BME280;13578;53.450;15.496;2023-05-13T12:50:19;100246.53;;;23.79;32.79
25722;BME280;13578;53.450;15.496;2023-05-13T12:53:20;100238.53;;;23.76;32.67
25722;BME280;13578;53.450;15.496;2023-05-13T12:56:21;100222.34;;;23.64;32.01
25722;BME280;13578;53.450;15.496;2023-05-13T12:59:22;100229.91;;;23.64;32.26
25722;BME280;13578;53.450;15.496;2023-05-13T13:02:23;100234.22;;;23.80;32.76
25722;BME280;13578;53.450;15.496;2023-05-13T13:05:25;100243.06;;;23.84;32.72
25722;BME280;13578;53.450;15.496;2023-05-13T13:08:26;100252.34;;;23.84;33.21
25722;BME280;13578;53.450;15.496;2023-05-13T13:11:27;100238.13;;;23.79;33.29
25722;BME280;13578;53.450;15.496;2023-05-13T13:14:29;100251.25;;;23.92;33.88
25722;BME280;13578;53.450;15.496;2023-05-13T13:17:30;100236.59;;;23.83;32.35
25722;BME280;13578;53.450;15.496;2023-05-13T13:20:30;100246.72;;;23.71;33.24
25722;BME280;13578;53.450;15.496;2023-05-13T13:23:34;100212.69;;;23.81;31.87
25722;BME280;13578;53.450;15.496;2023-05-13T13:26:34;100238.75;;;23.81;33.61
25722;BME280;13578;53.450;15.496;2023-05-13T13:29:35;100198.91;;;23.79;31.31
25722;BME280;13578;53.450;15.496;2023-05-13T13:32:36;100230.13;;;23.76;32.42
25722;BME280;13578;53.450;15.496;2023-05-13T13:35:36;100235.28;;;23.66;32.87
25722;BME280;13578;53.450;15.496;2023-05-13T13:38:37;100225.59;;;23.61;32.42
25722;BME280;13578;53.450;15.496;2023-05-13T13:41:37;100252.09;;;23.66;33.97
25722;BME280;13578;53.450;15.496;2023-05-13T13:44:38;100223.44;;;23.57;32.44
25722;BME280;13578;53.450;15.496;2023-05-13T13:47:40;100241.31;;;23.56;33.48
25722;BME280;13578;53.450;15.496;2023-05-13T13:50:40;100209.44;;;23.63;32.28
25722;BME280;13578;53.450;15.496;2023-05-13T13:53:41;100217.59;;;23.31;33.44
25722;BME280;13578;53.450;15.496;2023-05-13T13:56:42;100231.38;;;23.40;34.87
25722;BME280;13578;53.450;15.496;2023-05-13T13:59:42;100245.59;;;23.45;35.20
25722;BME280;13578;53.450;15.496;2023-05-13T14:02:43;100208.53;;;23.29;32.87
25722;BME280;13578;53.450;15.496;2023-05-13T14:05:43;100205.50;;;23.24;33.01
25722;BME280;13578;53.450;15.496;2023-05-13T14:08:44;100228.34;;;23.28;34.95
25722;BME280;13578;53.450;15.496;2023-05-13T14:11:45;100208.47;;;23.16;33.17
25722;BME280;13578;53.450;15.496;2023-05-13T14:14:45;100199.84;;;23.11;32.86
25722;BME280;13578;53.450;15.496;2023-05-13T14:17:46;100193.03;;;23.20;32.68
25722;BME280;13578;53.450;15.496;2023-05-13T14:20:46;100150.19;;;22.58;30.69
25722;BME280;13578;53.450;15.496;2023-05-13T14:23:49;100187.66;;;22.70;32.58
25722;BME280;13578;53.450;15.496;2023-05-13T14:26:50;100180.81;;;22.79;32.32
25722;BME280;13578;53.450;15.496;2023-05-13T14:29:50;100176.13;;;22.87;31.90
25722;BME280;13578;53.450;15.496;2023-05-13T14:32:51;100202.59;;;22.91;33.78
25722;BME280;13578;53.450;15.496;2023-05-13T14:35:52;100217.06;;;23.08;35.26
25722;BME280;13578;53.450;15.496;2023-05-13T14:38:52;100247.66;;;23.16;37.08
25722;BME280;13578;53.450;15.496;2023-05-13T14:41:53;100217.56;;;23.18;34.64
25722;BME280;13578;53.450;15.496;2023-05-13T14:44:54;100211.53;;;23.21;33.82
25722;BME280;13578;53.450;15.496;2023-05-13T14:47:55;100209.91;;;22.98;34.81
25722;BME280;13578;53.450;15.496;2023-05-13T14:50:56;100213.75;;;22.84;34.43
25722;BME280;13578;53.450;15.496;2023-05-13T14:53:56;100186.59;;;22.78;32.87
25722;BME280;13578;53.450;15.496;2023-05-13T14:56:57;100182.69;;;22.65;32.36
25722;BME280;13578;53.450;15.496;2023-05-13T14:59:58;100205.28;;;22.64;34.88
25722;BME280;13578;53.450;15.496;2023-05-13T15:02:59;100184.38;;;22.53;33.11
25722;BME280;13578;53.450;15.496;2023-05-13T15:06:00;100211.91;;;22.56;35.05
25722;BME280;13578;53.450;15.496;2023-05-13T15:09:01;100218.16;;;22.58;35.14
25722;BME280;13578;53.450;15.496;2023-05-13T15:12:01;100203.91;;;22.46;34.61
25722;BME280;13578;53.450;15.496;2023-05-13T15:15:02;100209.44;;;22.40;35.05
25722;BME280;13578;53.450;15.496;2023-05-13T15:18:04;100184.94;;;22.42;33.71
25722;BME280;13578;53.450;15.496;2023-05-13T15:21:05;100201.22;;;22.31;34.88
25722;BME280;13578;53.450;15.496;2023-05-13T15:24:05;100190.03;;;22.31;33.66
25722;BME280;13578;53.450;15.496;2023-05-13T15:27:06;100169.06;;;22.14;32.91
25722;BME280;13578;53.450;15.496;2023-05-13T15:30:07;100178.97;;;22.16;33.25
25722;BME280;13578;53.450;15.496;2023-05-13T15:33:08;100186.50;;;22.16;33.86
25722;BME280;13578;53.450;15.496;2023-05-13T15:36:09;100161.97;;;22.11;32.69
25722;BME280;13578;53.450;15.496;2023-05-13T15:39:09;100164.91;;;22.03;32.95
25722;BME280;13578;53.450;15.496;2023-05-13T15:42:10;100188.53;;;22.00;34.74
25722;BME280;13578;53.450;15.496;2023-05-13T15:45:10;100181.72;;;22.10;33.68
25722;BME280;13578;53.450;15.496;2023-05-13T15:48:11;100180.44;;;22.12;33.75
25722;BME280;13578;53.450;15.496;2023-05-13T15:51:12;100170.94;;;22.07;33.06
25722;BME280;13578;53.450;15.496;2023-05-13T15:54:12;100161.22;;;21.96;32.90
25722;BME280;13578;53.450;15.496;2023-05-13T15:57:13;100162.88;;;21.90;33.58
25722;BME280;13578;53.450;15.496;2023-05-13T16:00:14;100167.16;;;21.86;33.57
25722;BME280;13578;53.450;15.496;2023-05-13T16:03:15;100163.69;;;21.84;34.17